sensor_id;sensor_type;location;lat;lon;timestamp;pressure;altitude;pressure_sealevel;temperature;humidity
52625;BME280;38519;52.540;13.410;2023-02-03T00:01:06;101388.06;;;2.71;100.00
52625;BME280;38519;52.540;13.410;2023-02-03T00:03:31;101378.44;;;2.78;100.00
52625;BME280;38519;52.540;13.410;2023-02-03T00:05:56;101376.47;;;2.68;100.00
52625;BME280;38519;52.540;13.410;2023-02-03T00:08:22;101369.25;;;2.72;100.00
52625;BME280;38519;52.540;13.410;2023-02-03T00:10:48;101364.84;;;2.71;100.00
52625;BME280;38519;52.540;13.410;2023-02-03T00:13:16;101358.91;;;2.80;100.00
52625;BME280;38519;52.540;13.410;2023-02-03T00:15:41;101351.72;;;2.77;100.00
52625;BME280;38519;52.540;13.410;2023-02-03T00:18:07;101348.09;;;2.68;100.00
52625;BME280;38519;52.540;13.410;2023-02-03T00:20:32;101351.56;;;2.76;100.00
52625;BME280;38519;52.540;13.410;2023-02-03T00:23:08;101333.38;;;2.67;100.00
52625;BME280;38519;52.540;13.410;2023-02-03T00:25:33;101329.84;;;2.73;100.00
52625;BME280;38519;52.540;13.410;2023-02-03T00:27:58;101327.78;;;2.78;100.00
52625;BME280;38519;52.540;13.410;2023-02-03T00:30:24;101313.47;;;2.73;100.00
52625;BME280;38519;52.540;13.410;2023-02-03T00:32:49;101305.53;;;2.71;100.00
52625;BME280;38519;52.540;13.410;2023-02-03T00:35:14;101297.09;;;2.65;100.00
52625;BME280;38519;52.540;13.410;2023-02-03T00:37:40;101298.44;;;2.62;100.00
52625;BME280;38519;52.540;13.410;2023-02-03T00:40:05;101298.47;;;2.54;100.00
52625;BME280;38519;52.540;13.410;2023-02-03T00:42:30;101282.28;;;2.48;100.00
52625;BME280;38519;52.540;13.410;2023-02-03T00:44:56;101269.47;;;2.41;100.00
52625;BME280;38519;52.540;13.410;2023-02-03T00:47:21;101265.03;;;2.40;100.00
52625;BME280;38519;52.540;13.410;2023-02-03T00:49:46;101261.72;;;2.41;100.00
52625;BME280;38519;52.540;13.410;2023-02-03T00:52:11;101261.03;;;2.35;100.00
52625;BME280;38519;52.540;13.410;2023-02-03T00:54:37;101267.69;;;2.33;100.00
52625;BME280;38519;52.540;13.410;2023-02-03T00:57:02;101263.63;;;2.28;100.00
52625;BME280;38519;52.540;13.410;2023-02-03T00:59:27;101266.56;;;2.31;100.00
52625;BME280;38519;52.540;13.410;2023-02-03T01:01:53;101270.97;;;2.32;100.00
52625;BME280;38519;52.540;13.410;2023-02-03T01:04:18;101251.88;;;2.30;100.00
52625;BME280;38519;52.540;13.410;2023-02-03T01:06:43;101256.78;;;2.35;100.00
52625;BME280;38519;52.540;13.410;2023-02-03T01:09:09;101251.06;;;2.38;100.00
52625;BME280;38519;52.540;13.410;2023-02-03T01:11:35;101242.81;;;2.33;100.00
52625;BME280;38519;52.540;13.410;2023-02-03T01:14:00;101242.25;;;2.36;100.00
52625;BME280;38519;52.540;13.410;2023-02-03T01:16:26;101241.13;;;2.34;100.00
52625;BME280;38519;52.540;13.410;2023-02-03T01:18:53;101245.25;;;2.25;100.00
52625;BME280;38519;52.540;13.410;2023-02-03T01:21:19;101240.44;;;2.28;100.00
52625;BME280;38519;52.540;13.410;2023-02-03T01:23:45;101226.09;;;2.30;100.00
52625;BME280;38519;52.540;13.410;2023-02-03T01:26:12;101225.75;;;2.27;100.00
52625;BME280;38519;52.540;13.410;2023-02-03T01:28:38;101221.31;;;2.26;100.00
52625;BME280;38519;52.540;13.410;2023-02-03T01:34:03;101201.78;;;2.28;100.00
52625;BME280;38519;52.540;13.410;2023-02-03T01:36:29;101192.78;;;2.24;100.00
52625;BME280;38519;52.540;13.410;2023-02-03T01:38:55;101182.66;;;2.26;100.00
52625;BME280;38519;52.540;13.410;2023-02-03T01:41:21;101191.72;;;2.22;100.00
52625;BME280;38519;52.540;13.410;2023-02-03T01:43:48;101191.72;;;2.22;100.00
52625;BME280;38519;52.540;13.410;2023-02-03T01:49:03;101164.88;;;2.20;100.00
52625;BME280;38519;52.540;13.410;2023-02-03T01:51:31;101148.53;;;2.12;100.00
52625;BME280;38519;52.540;13.410;2023-02-03T01:53:57;101138.97;;;2.11;100.00
52625;BME280;38519;52.540;13.410;2023-02-03T01:56:23;101135.13;;;2.08;100.00
52625;BME280;38519;52.540;13.410;2023-02-03T01:58:48;101132.38;;;2.06;100.00
52625;BME280;38519;52.540;13.410;2023-02-03T02:01:14;101131.13;;;2.03;100.00
52625;BME280;38519;52.540;13.410;2023-02-03T02:03:41;101126.88;;;2.03;100.00
52625;BME280;38519;52.540;13.410;2023-02-03T02:06:09;101134.97;;;2.06;100.00
52625;BME280;38519;52.540;13.410;2023-02-03T02:08:36;101125.28;;;1.96;100.00
52625;BME280;38519;52.540;13.410;2023-02-03T02:11:02;101125.03;;;2.02;100.00
52625;BME280;38519;52.540;13.410;2023-02-03T02:13:28;101108.69;;;2.02;100.00
52625;BME280;38519;52.540;13.410;2023-02-03T02:18:42;101086.94;;;2.07;100.00
52625;BME280;38519;52.540;13.410;2023-02-03T02:41:47;101012.88;;;1.97;100.00
52625;BME280;38519;52.540;13.410;2023-02-03T02:44:24;101003.72;;;1.92;100.00
52625;BME280;38519;52.540;13.410;2023-02-03T02:47:00;100995.00;;;1.98;100.00
52625;BME280;38519;52.540;13.410;2023-02-03T02:49:29;100992.34;;;1.90;100.00
52625;BME280;38519;52.540;13.410;2023-02-03T02:51:56;100988.81;;;1.89;100.00
52625;BME280;38519;52.540;13.410;2023-02-03T02:54:24;100986.75;;;1.94;100.00
52625;BME280;38519;52.540;13.410;2023-02-03T02:56:52;100973.28;;;1.80;100.00
52625;BME280;38519;52.540;13.410;2023-02-03T02:59:26;100965.59;;;1.73;100.00
52625;BME280;38519;52.540;13.410;2023-02-03T03:01:52;100960.88;;;1.69;100.00
52625;BME280;38519;52.540;13.410;2023-02-03T03:04:19;100955.31;;;1.73;100.00
52625;BME280;38519;52.540;13.410;2023-02-03T03:06:54;100938.25;;;1.67;100.00
52625;BME280;38519;52.540;13.410;2023-02-03T03:09:22;100940.41;;;1.55;100.00
52625;BME280;38519;52.540;13.410;2023-02-03T03:11:53;100939.94;;;1.66;100.00
52625;BME280;38519;52.540;13.410;2023-02-03T03:14:21;100939.22;;;1.67;100.00
52625;BME280;38519;52.540;13.410;2023-02-03T03:16:49;100930.97;;;1.62;100.00
52625;BME280;38519;52.540;13.410;2023-02-03T03:19:18;100919.25;;;1.57;100.00
52625;BME280;38519;52.540;13.410;2023-02-03T03:21:50;100902.81;;;1.64;100.00
52625;BME280;38519;52.540;13.410;2023-02-03T03:24:19;100895.84;;;1.63;100.00
52625;BME280;38519;52.540;13.410;2023-02-03T03:26:50;100891.53;;;1.71;100.00
52625;BME280;38519;52.540;13.410;2023-02-03T03:29:23;100884.03;;;1.65;100.00
52625;BME280;38519;52.540;13.410;2023-02-03T03:31:50;100877.13;;;1.57;100.00
52625;BME280;38519;52.540;13.410;2023-02-03T03:34:18;100871.16;;;1.65;100.00
52625;BME280;38519;52.540;13.410;2023-02-03T03:42:27;100862.09;;;1.92;100.00
52625;BME280;38519;52.540;13.410;2023-02-03T03:44:56;100862.09;;;1.92;100.00
52625;BME280;38519;52.540;13.410;2023-02-03T03:47:28;100845.56;;;1.90;100.00
52625;BME280;38519;52.540;13.410;2023-02-03T03:49:55;100830.75;;;1.64;100.00
52625;BME280;38519;52.540;13.410;2023-02-03T03:52:23;100852.44;;;1.82;100.00
52625;BME280;38519;52.540;13.410;2023-02-03T03:54:51;100853.13;;;1.88;100.00
52625;BME280;38519;52.540;13.410;2023-02-03T03:57:25;100834.44;;;1.98;100.00
52625;BME280;38519;52.540;13.410;2023-02-03T03:59:53;100816.97;;;1.95;100.00
52625;BME280;38519;52.540;13.410;2023-02-03T04:02:19;100847.81;;;2.03;100.00
52625;BME280;38519;52.540;13.410;2023-02-03T04:04:45;100861.66;;;2.12;100.00
52625;BME280;38519;52.540;13.410;2023-02-03T04:07:13;100846.38;;;2.13;100.00
52625;BME280;38519;52.540;13.410;2023-02-03T04:09:39;100829.78;;;2.18;100.00
52625;BME280;38519;52.540;13.410;2023-02-03T04:12:08;100826.19;;;2.25;100.00
52625;BME280;38519;52.540;13.410;2023-02-03T04:14:37;100815.13;;;2.26;100.00
52625;BME280;38519;52.540;13.410;2023-02-03T04:17:03;100813.81;;;2.30;100.00
52625;BME280;38519;52.540;13.410;2023-02-03T04:19:28;100806.22;;;2.47;100.00
52625;BME280;38519;52.540;13.410;2023-02-03T04:21:53;100795.13;;;2.48;100.00
52625;BME280;38519;52.540;13.410;2023-02-03T04:24:19;100789.88;;;2.55;100.00
52625;BME280;38519;52.540;13.410;2023-02-03T04:26:44;100777.66;;;2.62;100.00
52625;BME280;38519;52.540;13.410;2023-02-03T04:29:09;100786.13;;;2.61;100.00
52625;BME280;38519;52.540;13.410;2023-02-03T04:31:35;100774.91;;;2.60;100.00
52625;BME280;38519;52.540;13.410;2023-02-03T04:34:00;100771.72;;;2.63;100.00
52625;BME280;38519;52.540;13.410;2023-02-03T04:36:25;100773.91;;;2.76;100.00
52625;BME280;38519;52.540;13.410;2023-02-03T04:38:51;100764.38;;;2.75;100.00
52625;BME280;38519;52.540;13.410;2023-02-03T04:41:16;100748.63;;;2.80;100.00
52625;BME280;38519;52.540;13.410;2023-02-03T04:43:41;100749.09;;;2.85;100.00
52625;BME280;38519;52.540;13.410;2023-02-03T04:46:08;100743.94;;;2.85;100.00
52625;BME280;38519;52.540;13.410;2023-02-03T04:48:34;100736.69;;;2.89;100.00
52625;BME280;38519;52.540;13.410;2023-02-03T04:51:03;100728.63;;;2.95;100.00
52625;BME280;38519;52.540;13.410;2023-02-03T04:53:29;100723.38;;;3.02;100.00
52625;BME280;38519;52.540;13.410;2023-02-03T04:55:54;100707.09;;;2.95;100.00
52625;BME280;38519;52.540;13.410;2023-02-03T04:58:19;100705.63;;;3.05;100.00
52625;BME280;38519;52.540;13.410;2023-02-03T05:00:45;100710.38;;;3.18;100.00
52625;BME280;38519;52.540;13.410;2023-02-03T05:03:10;100698.41;;;3.27;100.00
52625;BME280;38519;52.540;13.410;2023-02-03T05:05:35;100693.41;;;3.38;100.00
52625;BME280;38519;52.540;13.410;2023-02-03T05:08:00;100688.72;;;3.42;100.00
52625;BME280;38519;52.540;13.410;2023-02-03T05:10:26;100687.66;;;3.58;100.00
52625;BME280;38519;52.540;13.410;2023-02-03T05:12:51;100679.19;;;3.68;100.00
52625;BME280;38519;52.540;13.410;2023-02-03T05:15:16;100682.66;;;3.77;100.00
52625;BME280;38519;52.540;13.410;2023-02-03T05:17:41;100686.31;;;3.79;100.00
52625;BME280;38519;52.540;13.410;2023-02-03T05:20:07;100671.84;;;3.90;100.00
52625;BME280;38519;52.540;13.410;2023-02-03T05:22:32;100676.41;;;4.01;100.00
52625;BME280;38519;52.540;13.410;2023-02-03T05:24:59;100675.03;;;4.13;100.00
52625;BME280;38519;52.540;13.410;2023-02-03T05:27:24;100663.91;;;4.23;100.00
52625;BME280;38519;52.540;13.410;2023-02-03T05:29:50;100660.38;;;4.31;100.00
52625;BME280;38519;52.540;13.410;2023-02-03T05:32:15;100669.78;;;4.40;100.00
52625;BME280;38519;52.540;13.410;2023-02-03T05:34:40;100658.06;;;4.52;100.00
52625;BME280;38519;52.540;13.410;2023-02-03T05:37:05;100651.94;;;4.60;100.00
52625;BME280;38519;52.540;13.410;2023-02-03T05:39:31;100632.88;;;4.68;100.00
52625;BME280;38519;52.540;13.410;2023-02-03T05:41:56;100641.66;;;4.79;100.00
52625;BME280;38519;52.540;13.410;2023-02-03T05:44:22;100631.59;;;4.82;100.00
52625;BME280;38519;52.540;13.410;2023-02-03T05:46:48;100619.72;;;4.84;100.00
52625;BME280;38519;52.540;13.410;2023-02-03T05:49:13;100618.75;;;4.92;100.00
52625;BME280;38519;52.540;13.410;2023-02-03T05:51:39;100599.66;;;5.01;100.00
52625;BME280;38519;52.540;13.410;2023-02-03T05:54:05;100601.19;;;5.07;100.00
52625;BME280;38519;52.540;13.410;2023-02-03T05:56:30;100603.41;;;5.13;100.00
52625;BME280;38519;52.540;13.410;2023-02-03T05:58:56;100609.00;;;5.18;100.00
52625;BME280;38519;52.540;13.410;2023-02-03T06:01:21;100596.13;;;5.28;100.00
52625;BME280;38519;52.540;13.410;2023-02-03T06:03:46;100583.13;;;5.37;100.00
52625;BME280;38519;52.540;13.410;2023-02-03T06:06:12;100571.31;;;5.30;100.00
52625;BME280;38519;52.540;13.410;2023-02-03T06:08:37;100574.84;;;5.41;100.00
52625;BME280;38519;52.540;13.410;2023-02-03T06:11:02;100579.69;;;5.46;100.00
52625;BME280;38519;52.540;13.410;2023-02-03T06:13:28;100567.31;;;5.53;100.00
52625;BME280;38519;52.540;13.410;2023-02-03T06:15:53;100567.59;;;5.56;100.00
52625;BME280;38519;52.540;13.410;2023-02-03T06:18:19;100569.53;;;5.58;100.00
52625;BME280;38519;52.540;13.410;2023-02-03T06:20:45;100544.84;;;5.62;100.00
52625;BME280;38519;52.540;13.410;2023-02-03T06:23:10;100549.38;;;5.64;100.00
52625;BME280;38519;52.540;13.410;2023-02-03T06:25:36;100536.41;;;5.64;100.00
52625;BME280;38519;52.540;13.410;2023-02-03T06:28:01;100554.97;;;5.69;100.00
52625;BME280;38519;52.540;13.410;2023-02-03T06:30:26;100555.09;;;5.71;100.00
52625;BME280;38519;52.540;13.410;2023-02-03T06:32:51;100547.75;;;5.75;100.00
52625;BME280;38519;52.540;13.410;2023-02-03T06:35:17;100561.59;;;5.76;100.00
52625;BME280;38519;52.540;13.410;2023-02-03T06:37:42;100555.28;;;5.82;100.00
52625;BME280;38519;52.540;13.410;2023-02-03T06:40:08;100543.72;;;5.79;100.00
52625;BME280;38519;52.540;13.410;2023-02-03T06:42:34;100548.56;;;5.84;100.00
52625;BME280;38519;52.540;13.410;2023-02-03T06:44:59;100542.44;;;5.84;100.00
52625;BME280;38519;52.540;13.410;2023-02-03T06:47:24;100527.44;;;5.90;100.00
52625;BME280;38519;52.540;13.410;2023-02-03T06:49:49;100526.91;;;5.84;100.00
52625;BME280;38519;52.540;13.410;2023-02-03T06:52:16;100527.19;;;5.87;100.00
52625;BME280;38519;52.540;13.410;2023-02-03T06:54:41;100517.34;;;5.93;100.00
52625;BME280;38519;52.540;13.410;2023-02-03T06:57:06;100512.31;;;5.95;100.00
52625;BME280;38519;52.540;13.410;2023-02-03T06:59:32;100511.19;;;6.01;100.00
52625;BME280;38519;52.540;13.410;2023-02-03T07:01:58;100512.41;;;6.05;100.00
52625;BME280;38519;52.540;13.410;2023-02-03T07:04:23;100507.31;;;6.07;100.00
52625;BME280;38519;52.540;13.410;2023-02-03T07:06:48;100494.13;;;6.04;100.00
52625;BME280;38519;52.540;13.410;2023-02-03T07:09:14;100485.81;;;6.08;100.00
52625;BME280;38519;52.540;13.410;2023-02-03T07:11:40;100484.91;;;6.07;100.00
52625;BME280;38519;52.540;13.410;2023-02-03T07:14:05;100472.22;;;6.10;100.00
52625;BME280;38519;52.540;13.410;2023-02-03T07:16:30;100476.88;;;6.14;100.00
52625;BME280;38519;52.540;13.410;2023-02-03T07:18:56;100468.47;;;6.17;100.00
52625;BME280;38519;52.540;13.410;2023-02-03T07:21:21;100470.16;;;6.16;100.00
52625;BME280;38519;52.540;13.410;2023-02-03T07:23:47;100463.81;;;6.23;100.00
52625;BME280;38519;52.540;13.410;2023-02-03T07:26:13;100462.00;;;6.22;100.00
52625;BME280;38519;52.540;13.410;2023-02-03T07:28:38;100455.09;;;6.23;100.00
52625;BME280;38519;52.540;13.410;2023-02-03T07:31:04;100439.69;;;6.24;100.00
52625;BME280;38519;52.540;13.410;2023-02-03T07:33:30;100446.31;;;6.20;100.00
52625;BME280;38519;52.540;13.410;2023-02-03T07:35:58;100442.53;;;6.27;100.00
52625;BME280;38519;52.540;13.410;2023-02-03T07:38:24;100438.28;;;6.28;100.00
52625;BME280;38519;52.540;13.410;2023-02-03T07:40:50;100423.00;;;6.31;100.00
52625;BME280;38519;52.540;13.410;2023-02-03T07:43:15;100426.09;;;6.27;100.00
52625;BME280;38519;52.540;13.410;2023-02-03T07:45:41;100423.50;;;6.27;100.00
52625;BME280;38519;52.540;13.410;2023-02-03T07:48:06;100405.09;;;6.24;100.00
52625;BME280;38519;52.540;13.410;2023-02-03T07:50:32;100410.53;;;6.27;100.00
52625;BME280;38519;52.540;13.410;2023-02-03T07:52:57;100398.84;;;6.32;100.00
52625;BME280;38519;52.540;13.410;2023-02-03T07:55:24;100401.84;;;6.36;100.00
52625;BME280;38519;52.540;13.410;2023-02-03T07:57:49;100402.59;;;6.35;100.00
52625;BME280;38519;52.540;13.410;2023-02-03T08:00:16;100401.97;;;6.38;100.00
52625;BME280;38519;52.540;13.410;2023-02-03T08:02:42;100387.44;;;6.40;100.00
52625;BME280;38519;52.540;13.410;2023-02-03T08:05:08;100392.75;;;6.42;100.00
52625;BME280;38519;52.540;13.410;2023-02-03T08:07:33;100371.38;;;6.44;100.00
52625;BME280;38519;52.540;13.410;2023-02-03T08:09:59;100368.50;;;6.41;100.00
52625;BME280;38519;52.540;13.410;2023-02-03T08:12:24;100362.69;;;6.44;100.00
52625;BME280;38519;52.540;13.410;2023-02-03T08:14:49;100339.44;;;6.45;100.00
52625;BME280;38519;52.540;13.410;2023-02-03T08:17:15;100364.34;;;6.43;100.00
52625;BME280;38519;52.540;13.410;2023-02-03T08:19:40;100354.78;;;6.42;100.00
52625;BME280;38519;52.540;13.410;2023-02-03T08:22:05;100352.06;;;6.41;100.00
52625;BME280;38519;52.540;13.410;2023-02-03T08:24:31;100350.34;;;6.41;100.00
52625;BME280;38519;52.540;13.410;2023-02-03T08:26:56;100340.00;;;6.41;100.00
52625;BME280;38519;52.540;13.410;2023-02-03T08:29:21;100338.16;;;6.40;100.00
52625;BME280;38519;52.540;13.410;2023-02-03T08:31:47;100338.16;;;6.40;100.00
52625;BME280;38519;52.540;13.410;2023-02-03T08:34:12;100330.50;;;6.42;100.00
52625;BME280;38519;52.540;13.410;2023-02-03T08:36:37;100341.56;;;6.39;100.00
52625;BME280;38519;52.540;13.410;2023-02-03T08:39:04;100328.84;;;6.42;100.00
52625;BME280;38519;52.540;13.410;2023-02-03T08:41:29;100321.97;;;6.43;100.00
52625;BME280;38519;52.540;13.410;2023-02-03T08:43:55;100319.63;;;6.46;100.00
52625;BME280;38519;52.540;13.410;2023-02-03T08:46:20;100311.97;;;6.47;100.00
52625;BME280;38519;52.540;13.410;2023-02-03T08:48:46;100302.63;;;6.49;100.00
52625;BME280;38519;52.540;13.410;2023-02-03T08:51:14;100307.94;;;6.51;100.00
52625;BME280;38519;52.540;13.410;2023-02-03T08:53:39;100300.91;;;6.50;100.00
52625;BME280;38519;52.540;13.410;2023-02-03T08:56:06;100299.25;;;6.50;100.00
52625;BME280;38519;52.540;13.410;2023-02-03T08:58:32;100286.41;;;6.52;100.00
52625;BME280;38519;52.540;13.410;2023-02-03T09:03:32;100290.28;;;6.47;100.00
52625;BME280;38519;52.540;13.410;2023-02-03T09:05:58;100278.75;;;6.53;100.00
52625;BME280;38519;52.540;13.410;2023-02-03T09:08:24;100274.72;;;6.57;100.00
52625;BME280;38519;52.540;13.410;2023-02-03T09:10:49;100272.13;;;6.57;100.00
52625;BME280;38519;52.540;13.410;2023-02-03T09:13:14;100266.03;;;6.56;100.00
52625;BME280;38519;52.540;13.410;2023-02-03T09:15:40;100274.47;;;6.54;100.00
52625;BME280;38519;52.540;13.410;2023-02-03T09:18:06;100258.00;;;6.53;100.00
52625;BME280;38519;52.540;13.410;2023-02-03T09:20:31;100260.09;;;6.47;100.00
52625;BME280;38519;52.540;13.410;2023-02-03T09:22:57;100255.66;;;6.56;100.00
52625;BME280;38519;52.540;13.410;2023-02-03T09:25:23;100253.19;;;6.58;100.00
52625;BME280;38519;52.540;13.410;2023-02-03T09:27:48;100266.38;;;6.61;100.00
52625;BME280;38519;52.540;13.410;2023-02-03T09:30:14;100262.50;;;6.66;100.00
52625;BME280;38519;52.540;13.410;2023-02-03T09:32:39;100254.84;;;6.68;100.00
52625;BME280;38519;52.540;13.410;2023-02-03T09:35:04;100255.63;;;6.67;100.00
52625;BME280;38519;52.540;13.410;2023-02-03T09:37:30;100250.19;;;6.64;100.00
52625;BME280;38519;52.540;13.410;2023-02-03T09:39:55;100233.28;;;6.69;100.00
52625;BME280;38519;52.540;13.410;2023-02-03T09:47:41;100217.31;;;6.74;100.00
52625;BME280;38519;52.540;13.410;2023-02-03T09:50:06;100227.13;;;6.79;100.00
52625;BME280;38519;52.540;13.410;2023-02-03T09:52:36;100215.63;;;6.75;100.00
52625;BME280;38519;52.540;13.410;2023-02-03T09:55:10;100228.59;;;6.75;100.00
52625;BME280;38519;52.540;13.410;2023-02-03T09:58:15;100192.75;;;6.81;100.00
52625;BME280;38519;52.540;13.410;2023-02-03T10:01:15;100201.03;;;6.87;100.00
52625;BME280;38519;52.540;13.410;2023-02-03T10:03:24;100187.94;;;6.86;100.00
52625;BME280;38519;52.540;13.410;2023-02-03T10:11:11;100156.31;;;7.02;100.00
52625;BME280;38519;52.540;13.410;2023-02-03T10:13:47;100165.88;;;7.03;100.00
52625;BME280;38519;52.540;13.410;2023-02-03T10:18:39;100144.00;;;7.11;100.00
52625;BME280;38519;52.540;13.410;2023-02-03T10:21:13;100150.38;;;7.15;100.00
52625;BME280;38519;52.540;13.410;2023-02-03T10:23:41;100141.78;;;7.16;100.00
52625;BME280;38519;52.540;13.410;2023-02-03T10:26:08;100171.50;;;7.19;100.00
52625;BME280;38519;52.540;13.410;2023-02-03T10:28:39;100149.91;;;7.20;100.00
52625;BME280;38519;52.540;13.410;2023-02-03T10:31:07;100159.66;;;7.23;100.00
52625;BME280;38519;52.540;13.410;2023-02-03T10:33:39;100168.69;;;7.28;100.00
52625;BME280;38519;52.540;13.410;2023-02-03T10:38:43;100184.63;;;7.33;100.00
52625;BME280;38519;52.540;13.410;2023-02-03T10:41:11;100224.69;;;7.24;100.00
52625;BME280;38519;52.540;13.410;2023-02-03T10:43:37;100242.13;;;7.15;100.00
52625;BME280;38519;52.540;13.410;2023-02-03T10:46:12;100240.09;;;6.89;100.00
52625;BME280;38519;52.540;13.410;2023-02-03T10:48:37;100256.19;;;6.52;100.00
52625;BME280;38519;52.540;13.410;2023-02-03T10:51:03;100259.97;;;6.35;100.00
52625;BME280;38519;52.540;13.410;2023-02-03T10:53:33;100252.63;;;6.30;100.00
52625;BME280;38519;52.540;13.410;2023-02-03T10:58:25;100223.81;;;6.37;100.00
52625;BME280;38519;52.540;13.410;2023-02-03T11:00:54;100223.78;;;6.47;100.00
52625;BME280;38519;52.540;13.410;2023-02-03T11:03:25;100229.63;;;6.45;100.00
52625;BME280;38519;52.540;13.410;2023-02-03T11:06:07;100245.22;;;6.34;100.00
52625;BME280;38519;52.540;13.410;2023-02-03T11:08:34;100236.06;;;6.50;100.00
52625;BME280;38519;52.540;13.410;2023-02-03T11:11:07;100241.25;;;6.50;100.00
52625;BME280;38519;52.540;13.410;2023-02-03T11:13:33;100247.09;;;6.57;100.00
52625;BME280;38519;52.540;13.410;2023-02-03T11:15:59;100230.75;;;6.59;100.00
52625;BME280;38519;52.540;13.410;2023-02-03T11:18:32;100209.44;;;6.63;100.00
52625;BME280;38519;52.540;13.410;2023-02-03T11:20:59;100225.25;;;6.66;100.00
52625;BME280;38519;52.540;13.410;2023-02-03T11:23:24;100225.09;;;6.74;100.00
52625;BME280;38519;52.540;13.410;2023-02-03T11:25:50;100218.09;;;6.73;100.00
52625;BME280;38519;52.540;13.410;2023-02-03T11:28:15;100224.97;;;6.73;100.00
52625;BME280;38519;52.540;13.410;2023-02-03T11:30:42;100214.59;;;6.73;100.00
52625;BME280;38519;52.540;13.410;2023-02-03T11:33:17;100226.94;;;6.65;100.00
52625;BME280;38519;52.540;13.410;2023-02-03T11:35:56;100215.44;;;6.62;100.00
52625;BME280;38519;52.540;13.410;2023-02-03T11:38:27;100234.88;;;6.67;100.00
52625;BME280;38519;52.540;13.410;2023-02-03T11:40:57;100238.19;;;6.76;100.00
52625;BME280;38519;52.540;13.410;2023-02-03T11:43:23;100243.88;;;6.82;100.00
52625;BME280;38519;52.540;13.410;2023-02-03T11:45:49;100243.56;;;6.89;100.00
52625;BME280;38519;52.540;13.410;2023-02-03T11:48:29;100236.28;;;6.96;100.00
52625;BME280;38519;52.540;13.410;2023-02-03T12:24:12;100235.81;;;7.68;100.00
52625;BME280;38519;52.540;13.410;2023-02-03T12:26:41;100237.47;;;7.67;100.00
52625;BME280;38519;52.540;13.410;2023-02-03T12:29:21;100236.16;;;7.72;100.00
52625;BME280;38519;52.540;13.410;2023-02-03T12:34:20;100242.97;;;8.06;100.00
52625;BME280;38519;52.540;13.410;2023-02-03T12:39:14;100246.81;;;7.99;100.00
52625;BME280;38519;52.540;13.410;2023-02-03T12:41:45;100247.88;;;8.13;100.00
52625;BME280;38519;52.540;13.410;2023-02-03T12:44:21;100213.72;;;8.20;100.00
52625;BME280;38519;52.540;13.410;2023-02-03T12:46:49;100248.78;;;8.25;100.00
52625;BME280;38519;52.540;13.410;2023-02-03T12:51:57;100253.13;;;7.79;100.00
52625;BME280;38519;52.540;13.410;2023-02-03T12:56:52;100337.25;;;6.92;100.00
52625;BME280;38519;52.540;13.410;2023-02-03T12:59:21;100392.06;;;4.65;100.00
52625;BME280;38519;52.540;13.410;2023-02-03T13:04:30;100367.44;;;3.75;100.00
52625;BME280;38519;52.540;13.410;2023-02-03T13:07:20;100343.38;;;3.85;100.00
52625;BME280;38519;52.540;13.410;2023-02-03T13:10:13;100338.88;;;4.01;100.00
52625;BME280;38519;52.540;13.410;2023-02-03T13:12:40;100349.50;;;4.24;100.00
52625;BME280;38519;52.540;13.410;2023-02-03T13:17:56;100351.94;;;4.41;100.00
52625;BME280;38519;52.540;13.410;2023-02-03T13:20:23;100363.28;;;4.52;100.00
52625;BME280;38519;52.540;13.410;2023-02-03T13:22:49;100356.69;;;4.55;100.00
52625;BME280;38519;52.540;13.410;2023-02-03T13:25:20;100379.34;;;4.58;100.00
52625;BME280;38519;52.540;13.410;2023-02-03T13:36:14;100351.47;;;4.64;100.00
52625;BME280;38519;52.540;13.410;2023-02-03T13:41:36;100346.28;;;4.83;100.00
52625;BME280;38519;52.540;13.410;2023-02-03T13:44:02;100359.88;;;4.91;100.00
52625;BME280;38519;52.540;13.410;2023-02-03T13:46:28;100348.28;;;4.96;100.00
52625;BME280;38519;52.540;13.410;2023-02-03T13:48:56;100347.34;;;4.96;100.00
52625;BME280;38519;52.540;13.410;2023-02-03T13:51:24;100345.59;;;5.05;100.00
52625;BME280;38519;52.540;13.410;2023-02-03T13:53:50;100341.31;;;5.05;100.00
52625;BME280;38519;52.540;13.410;2023-02-03T13:56:22;100341.97;;;5.03;100.00
52625;BME280;38519;52.540;13.410;2023-02-03T14:03:58;100328.31;;;5.24;100.00
52625;BME280;38519;52.540;13.410;2023-02-03T14:15:15;100333.88;;;5.69;100.00
52625;BME280;38519;52.540;13.410;2023-02-03T14:20:01;100337.75;;;5.84;100.00
52625;BME280;38519;52.540;13.410;2023-02-03T14:22:26;100351.91;;;5.88;100.00
52625;BME280;38519;52.540;13.410;2023-02-03T14:24:52;100349.72;;;5.92;100.00
52625;BME280;38519;52.540;13.410;2023-02-03T14:27:19;100346.72;;;5.88;100.00
52625;BME280;38519;52.540;13.410;2023-02-03T14:29:45;100347.00;;;6.01;100.00
52625;BME280;38519;52.540;13.410;2023-02-03T14:32:33;100351.91;;;6.08;100.00
52625;BME280;38519;52.540;13.410;2023-02-03T14:35:30;100354.66;;;6.20;100.00
52625;BME280;38519;52.540;13.410;2023-02-03T14:37:57;100361.41;;;6.28;100.00
52625;BME280;38519;52.540;13.410;2023-02-03T14:40:45;100354.53;;;6.39;100.00
52625;BME280;38519;52.540;13.410;2023-02-03T14:43:21;100358.13;;;6.41;100.00
52625;BME280;38519;52.540;13.410;2023-02-03T14:58:16;100350.88;;;6.47;100.00
52625;BME280;38519;52.540;13.410;2023-02-03T15:00:44;100363.69;;;6.56;100.00
52625;BME280;38519;52.540;13.410;2023-02-03T15:05:37;100368.75;;;6.54;100.00
52625;BME280;38519;52.540;13.410;2023-02-03T15:08:03;100379.38;;;6.57;100.00